createdAt,value
2018-02-13T00:00:10.159Z,0.47
2018-02-13T00:02:37.908Z,0.47
2018-02-13T00:05:05.709Z,0.60
2018-02-13T00:07:33.466Z,0.57
2018-02-13T00:10:01.288Z,0.65
2018-02-13T00:12:52.597Z,0.74
2018-02-13T00:15:20.392Z,0.68
2018-02-13T00:17:48.195Z,0.78
2018-02-13T00:20:15.991Z,0.81
2018-02-13T00:22:50.506Z,0.88
2018-02-13T00:25:18.319Z,0.74
2018-02-13T00:27:46.063Z,0.55
2018-02-13T00:30:13.877Z,0.45
2018-02-13T00:32:41.630Z,0.46
2018-02-13T00:35:09.461Z,0.46
2018-02-13T00:37:37.278Z,0.42
2018-02-13T00:40:05.050Z,0.44
2018-02-13T00:42:32.864Z,0.55
2018-02-13T00:45:00.643Z,0.55
2018-02-13T00:47:28.523Z,0.39
2018-02-13T00:49:56.373Z,0.54
2018-02-13T00:52:24.193Z,0.44
2018-02-13T00:54:51.974Z,0.53
2018-02-13T00:57:19.744Z,0.67
2018-02-13T00:59:47.530Z,0.63
2018-02-13T01:02:15.364Z,0.70
2018-02-13T01:04:43.139Z,0.70
2018-02-13T01:07:10.964Z,0.59
2018-02-13T01:09:38.751Z,0.42
2018-02-13T01:12:06.491Z,0.41
2018-02-13T01:14:34.328Z,0.19
2018-02-13T01:17:02.080Z,0.13
2018-02-13T01:19:29.861Z,0.13
2018-02-13T01:21:57.598Z,0.07
2018-02-13T01:24:25.391Z,0.08
2018-02-13T01:26:53.163Z,0.03
2018-02-13T01:29:21.047Z,0.02
2018-02-13T01:31:48.843Z,0.03
2018-02-13T01:34:17.381Z,0.00
2018-02-13T01:36:45.133Z,-0.05
2018-02-13T01:39:12.917Z,-0.08
2018-02-13T01:41:40.659Z,-0.12
2018-02-13T01:44:08.440Z,-0.10
2018-02-13T01:46:36.298Z,-0.21
2018-02-13T01:49:04.114Z,-0.23
2018-02-13T01:51:31.846Z,-0.25
2018-02-13T01:53:59.678Z,-0.21
2018-02-13T01:56:27.421Z,-0.17
2018-02-13T01:58:55.260Z,-0.16
2018-02-13T02:01:22.995Z,-0.22
2018-02-13T02:03:50.734Z,-0.25
2018-02-13T02:06:18.522Z,-0.19
2018-02-13T02:08:46.262Z,-0.15
2018-02-13T02:11:14.124Z,-0.15
2018-02-13T02:13:41.886Z,-0.18
2018-02-13T02:16:09.709Z,-0.19
2018-02-13T02:18:37.509Z,-0.15
2018-02-13T02:21:05.296Z,-0.07
2018-02-13T02:23:33.078Z,-0.29
2018-02-13T02:26:00.883Z,-0.32
2018-02-13T02:28:28.617Z,-0.31
2018-02-13T02:30:56.465Z,-0.36
2018-02-13T02:33:24.235Z,-0.30
2018-02-13T02:35:52.085Z,-0.30
2018-02-13T02:38:19.857Z,-0.29
2018-02-13T02:40:47.643Z,-0.34
2018-02-13T02:43:15.460Z,-0.35
2018-02-13T02:45:43.250Z,-0.26
2018-02-13T02:48:11.001Z,-0.21
2018-02-13T02:50:38.851Z,-0.25
2018-02-13T02:53:06.590Z,-0.19
2018-02-13T02:55:34.445Z,-0.20
2018-02-13T02:58:02.251Z,-0.25
2018-02-13T03:00:30.085Z,-0.23
2018-02-13T03:02:57.831Z,-0.17
2018-02-13T03:05:25.613Z,-0.07
2018-02-13T03:07:53.355Z,0.03
2018-02-13T03:10:21.148Z,0.01
2018-02-13T03:12:48.926Z,0.07
2018-02-13T03:15:16.783Z,0.08
2018-02-13T03:17:44.570Z,0.10
2018-02-13T03:20:12.382Z,0.10
2018-02-13T03:22:40.144Z,0.07
2018-02-13T03:25:07.938Z,0.10
2018-02-13T03:27:35.791Z,0.11
2018-02-13T03:30:03.598Z,0.03
2018-02-13T03:32:31.356Z,-0.13
2018-02-13T03:34:59.165Z,-0.07
2018-02-13T03:37:26.936Z,-0.13
2018-02-13T03:39:54.766Z,-0.12
2018-02-13T03:42:22.507Z,-0.14
2018-02-13T03:44:50.307Z,-0.11
2018-02-13T03:47:18.149Z,-0.05
2018-02-13T03:49:45.967Z,-0.11
2018-02-13T03:52:13.821Z,0.01
2018-02-13T03:54:41.578Z,-0.02
2018-02-13T03:57:09.371Z,-0.09
2018-02-13T03:59:37.123Z,-0.10
2018-02-13T04:02:04.914Z,-0.21
2018-02-13T04:04:32.660Z,-0.06
2018-02-13T04:07:00.489Z,-0.14
2018-02-13T04:09:28.292Z,-0.16
2018-02-13T04:11:56.091Z,-0.16
2018-02-13T04:14:23.843Z,-0.22
2018-02-13T04:16:51.652Z,-0.30
2018-02-13T04:19:19.417Z,-0.38
2018-02-13T04:21:47.212Z,-0.30
2018-02-13T04:24:15.011Z,-0.41
2018-02-13T04:26:43.645Z,-0.49
2018-02-13T04:29:11.461Z,-0.45
2018-02-13T04:31:39.323Z,-0.39
2018-02-13T04:34:07.082Z,-0.44
2018-02-13T04:36:34.921Z,-0.52
2018-02-13T04:39:02.666Z,-0.50
2018-02-13T04:41:30.472Z,-0.49
2018-02-13T04:43:58.229Z,-0.44
2018-02-13T04:46:26.055Z,-0.43
2018-02-13T04:48:53.806Z,-0.45
2018-02-13T04:51:21.608Z,-0.55
2018-02-13T04:53:49.426Z,-0.66
2018-02-13T04:56:17.203Z,-0.64
2018-02-13T04:58:44.953Z,-0.74
2018-02-13T05:01:12.797Z,-0.81
2018-02-13T05:03:40.618Z,-1.02
2018-02-13T05:06:08.425Z,-1.01
2018-02-13T05:08:36.294Z,-0.93
2018-02-13T05:11:04.147Z,-0.95
2018-02-13T05:13:31.945Z,-1.06
2018-02-13T05:15:59.754Z,-1.01
2018-02-13T05:18:27.548Z,-1.05
2018-02-13T05:20:55.375Z,-1.05
2018-02-13T05:23:23.150Z,-1.08
2018-02-13T05:25:50.971Z,-1.16
2018-02-13T05:28:18.869Z,-1.10
2018-02-13T05:30:46.661Z,-1.08
2018-02-13T05:33:14.548Z,-1.08
2018-02-13T05:35:42.337Z,-1.17
2018-02-13T05:38:10.758Z,-1.17
2018-02-13T05:40:38.552Z,-1.23
2018-02-13T05:43:24.798Z,-1.32
2018-02-13T05:45:52.641Z,-1.27
2018-02-13T05:48:20.477Z,-1.30
2018-02-13T05:50:48.315Z,-1.29
2018-02-13T05:53:16.139Z,-1.35
2018-02-13T05:55:44.006Z,-1.43
2018-02-13T05:58:11.822Z,-1.40
2018-02-13T06:00:39.631Z,-1.45
2018-02-13T06:03:07.456Z,-1.11
2018-02-13T06:05:35.327Z,-1.49
2018-02-13T06:08:03.162Z,-1.74
2018-02-13T06:10:30.987Z,-1.82
2018-02-13T06:12:58.854Z,-1.86
2018-02-13T06:15:26.668Z,-1.83
2018-02-13T06:17:54.515Z,-1.84
2018-02-13T06:20:22.383Z,-1.76
2018-02-13T06:22:50.288Z,-1.85
2018-02-13T06:25:18.148Z,-1.90
2018-02-13T06:27:46.023Z,-1.95
2018-02-13T06:30:13.836Z,-2.01
2018-02-13T06:32:41.754Z,-2.13
2018-02-13T06:35:09.575Z,-2.15
2018-02-13T06:37:37.550Z,-2.15
2018-02-13T06:40:05.344Z,-2.23
2018-02-13T06:42:33.312Z,-2.17
2018-02-13T06:45:01.203Z,-2.26
2018-02-13T06:47:29.156Z,-2.15
2018-02-13T06:49:57.009Z,-2.20
2018-02-13T06:52:24.919Z,-2.23
2018-02-13T06:54:52.769Z,-2.16
2018-02-13T06:57:20.612Z,-2.22
2018-02-13T06:59:48.548Z,-2.15
2018-02-13T07:02:16.432Z,-2.14
2018-02-13T07:04:44.283Z,-2.08
2018-02-13T07:07:12.194Z,-2.04
2018-02-13T07:09:40.072Z,-1.94
2018-02-13T07:12:07.999Z,-1.81
2018-02-13T07:14:35.812Z,-1.71
2018-02-13T07:17:03.747Z,-1.74
2018-02-13T07:19:31.595Z,-1.71
2018-02-13T07:21:59.446Z,-1.65
2018-02-13T07:24:27.260Z,-1.56
2018-02-13T07:26:55.160Z,-1.47
2018-02-13T07:29:23.031Z,-1.34
2018-02-13T07:31:50.879Z,-1.11
2018-02-13T07:34:18.703Z,-1.08
2018-02-13T07:36:46.580Z,-0.96
2018-02-13T07:39:14.523Z,-0.84
2018-02-13T07:41:42.376Z,-0.68
2018-02-13T07:44:10.203Z,-0.55
2018-02-13T07:46:38.021Z,-0.40
2018-02-13T07:49:05.911Z,-0.29
2018-02-13T07:51:33.775Z,-0.22
2018-02-13T07:54:01.712Z,-0.16
2018-02-13T07:56:29.541Z,-0.06
2018-02-13T07:58:57.384Z,0.09
2018-02-13T08:01:25.308Z,0.22
2018-02-13T08:03:53.227Z,0.31
2018-02-13T08:06:21.017Z,0.41
2018-02-13T08:08:48.957Z,0.60
2018-02-13T08:11:16.818Z,0.91
2018-02-13T08:13:44.734Z,0.71
2018-02-13T08:16:13.441Z,0.81
2018-02-13T08:18:41.297Z,1.00
2018-02-13T08:21:09.256Z,1.09
2018-02-13T08:23:37.125Z,1.06
2018-02-13T08:26:04.908Z,1.19
2018-02-13T08:28:32.736Z,1.21
2018-02-13T08:31:00.626Z,1.16
2018-02-13T08:33:28.544Z,1.26
2018-02-13T08:35:56.447Z,1.34
2018-02-13T08:38:24.355Z,1.33
2018-02-13T08:40:52.259Z,1.44
2018-02-13T08:43:20.199Z,1.57
2018-02-13T08:45:49.611Z,1.64
2018-02-13T08:48:17.706Z,1.77
2018-02-13T08:50:45.564Z,1.85
2018-02-13T08:53:13.529Z,1.94
2018-02-13T08:55:41.413Z,1.99
2018-02-13T08:58:09.356Z,2.13
2018-02-13T09:00:37.300Z,2.15
2018-02-13T09:03:05.156Z,2.24
2018-02-13T09:05:33.117Z,2.30
2018-02-13T09:08:01.136Z,2.36
2018-02-13T09:10:28.940Z,2.53
2018-02-13T09:12:56.852Z,2.49
2018-02-13T09:15:24.806Z,2.59
2018-02-13T09:17:52.703Z,2.53
2018-02-13T09:20:20.612Z,2.70
2018-02-13T09:22:48.395Z,2.75
2018-02-13T09:25:16.227Z,2.80
2018-02-13T09:27:44.096Z,2.83
2018-02-13T09:30:11.952Z,2.78
2018-02-13T09:32:39.771Z,2.89
2018-02-13T09:35:07.679Z,3.02
2018-02-13T09:37:35.568Z,3.02
2018-02-13T09:40:03.474Z,3.04
2018-02-13T09:42:31.350Z,3.07
2018-02-13T09:44:59.236Z,3.14
2018-02-13T09:47:27.132Z,3.22
2018-02-13T09:49:55.038Z,3.27
2018-02-13T09:52:22.940Z,3.31
2018-02-13T09:54:50.829Z,3.19
2018-02-13T09:57:18.697Z,3.24
2018-02-13T09:59:46.556Z,3.21
2018-02-13T10:02:14.416Z,3.23
2018-02-13T10:04:42.436Z,3.27
2018-02-13T10:07:10.307Z,3.23
2018-02-13T10:09:38.236Z,3.39
2018-02-13T10:12:06.083Z,3.43
2018-02-13T10:14:34.020Z,3.43
2018-02-13T10:17:01.912Z,3.29
2018-02-13T10:19:29.826Z,3.27
2018-02-13T10:21:57.750Z,3.41
2018-02-13T10:24:25.703Z,3.33
2018-02-13T10:26:53.539Z,3.41
2018-02-13T10:29:21.458Z,3.56
2018-02-13T10:31:49.331Z,3.71
2018-02-13T10:34:17.231Z,3.82
2018-02-13T10:36:45.087Z,4.18
2018-02-13T10:39:12.984Z,4.12
2018-02-13T10:41:41.873Z,4.09
2018-02-13T10:44:09.754Z,4.06
2018-02-13T10:46:38.565Z,4.06
2018-02-13T10:49:06.429Z,4.05
2018-02-13T10:51:34.316Z,4.13
2018-02-13T10:54:02.198Z,4.13
2018-02-13T10:56:30.029Z,4.21
2018-02-13T10:58:57.959Z,4.29
2018-02-13T11:01:31.389Z,4.34
2018-02-13T11:03:59.153Z,4.39
2018-02-13T11:06:33.849Z,4.37
2018-02-13T11:09:04.805Z,4.33
2018-02-13T11:11:32.796Z,4.42
2018-02-13T11:14:00.638Z,4.50
2018-02-13T11:16:28.615Z,4.52
2018-02-13T11:18:56.521Z,4.51
2018-02-13T11:21:24.492Z,4.56
2018-02-13T11:23:52.358Z,4.61
2018-02-13T11:26:20.323Z,4.57
2018-02-13T11:28:48.133Z,4.50
2018-02-13T11:31:16.047Z,4.40
2018-02-13T11:33:43.889Z,4.45
2018-02-13T11:36:11.696Z,4.48
2018-02-13T11:38:39.585Z,4.59
2018-02-13T11:41:07.424Z,4.70
2018-02-13T11:43:35.308Z,-144.12
2018-02-13T11:46:03.238Z,-144.12
2018-02-13T11:48:31.155Z,-144.12
2018-02-13T11:50:59.064Z,-144.12
2018-02-13T11:53:26.991Z,-144.12
2018-02-13T11:55:54.879Z,-144.12
2018-02-13T11:58:22.808Z,-144.12
2018-02-13T12:00:50.682Z,-144.12
2018-02-13T12:03:18.528Z,-144.12
2018-02-13T12:05:46.399Z,-144.12
2018-02-13T12:08:14.215Z,-144.12
2018-02-13T12:10:42.064Z,-144.12
2018-02-13T12:13:09.844Z,-144.12
2018-02-13T12:15:37.750Z,-144.12
2018-02-13T12:18:05.534Z,-144.12
2018-02-13T12:20:33.374Z,-144.12
2018-02-13T12:23:01.247Z,-144.12
2018-02-13T12:25:40.946Z,-144.12
2018-02-13T12:28:08.851Z,-144.12
2018-02-13T12:30:36.681Z,-144.12
2018-02-13T12:33:04.502Z,-144.12
2018-02-13T12:35:32.292Z,-144.12
2018-02-13T12:38:00.080Z,-144.12
2018-02-13T12:40:27.959Z,-144.12
2018-02-13T12:42:55.814Z,-144.12
2018-02-13T12:45:23.658Z,-144.12
2018-02-13T12:47:51.578Z,-144.12
2018-02-13T12:50:19.339Z,-144.12
2018-02-13T12:52:47.214Z,-144.12
2018-02-13T12:55:15.136Z,-144.12
2018-02-13T12:57:43.093Z,-144.12
2018-02-13T13:00:10.938Z,-144.12
2018-02-13T13:02:38.814Z,-144.12
2018-02-13T13:05:06.694Z,-144.12
2018-02-13T13:07:34.511Z,-144.12
2018-02-13T13:10:02.301Z,-144.12
2018-02-13T13:12:30.174Z,-144.12
2018-02-13T13:14:58.051Z,-144.12
2018-02-13T13:17:26.028Z,-144.12
2018-02-13T13:19:53.985Z,-144.12
2018-02-13T13:22:21.807Z,-144.12
2018-02-13T13:24:49.701Z,-144.12
2018-02-13T13:27:17.507Z,-144.12
2018-02-13T13:29:45.377Z,-144.12
2018-02-13T13:32:13.247Z,-144.12
2018-02-13T13:34:41.072Z,-144.12
2018-02-13T13:37:08.952Z,-144.12
2018-02-13T13:39:36.820Z,-144.12
2018-02-13T13:42:04.712Z,-144.12
2018-02-13T13:44:32.615Z,-144.12
2018-02-13T13:47:00.472Z,-144.12
2018-02-13T13:49:28.318Z,-144.12
2018-02-13T13:51:56.164Z,-144.12
2018-02-13T13:54:23.991Z,-144.12
2018-02-13T13:56:51.825Z,-144.12
2018-02-13T13:59:19.598Z,-144.12
2018-02-13T14:01:47.536Z,-144.12
2018-02-13T14:04:15.420Z,-144.12
2018-02-13T14:06:43.738Z,-144.12
2018-02-13T14:09:11.639Z,-144.12
2018-02-13T14:11:39.526Z,-144.12
2018-02-13T14:14:07.465Z,-144.12
2018-02-13T14:16:35.519Z,-144.12
2018-02-13T14:19:03.953Z,-144.12
2018-02-13T14:21:31.909Z,-144.12
2018-02-13T14:23:59.823Z,-144.12
2018-02-13T14:26:27.719Z,-144.12
2018-02-13T14:28:55.736Z,-144.12
2018-02-13T14:31:23.571Z,-144.12
2018-02-13T14:33:51.481Z,-144.12
2018-02-13T14:36:19.377Z,-144.12
2018-02-13T14:38:47.312Z,-144.12
2018-02-13T14:41:15.126Z,-144.12
2018-02-13T14:43:43.026Z,-144.12
2018-02-13T14:46:10.845Z,5.11
2018-02-13T14:48:38.802Z,5.10
2018-02-13T14:51:06.606Z,4.81
2018-02-13T14:53:34.523Z,4.72
2018-02-13T14:56:02.357Z,4.63
2018-02-13T14:58:30.224Z,4.60
2018-02-13T15:00:58.013Z,4.50
2018-02-13T15:03:25.845Z,4.41
2018-02-13T15:05:53.698Z,4.34
2018-02-13T15:08:21.575Z,4.38
2018-02-13T15:10:49.440Z,4.24
2018-02-13T15:13:17.406Z,4.11
2018-02-13T15:15:45.633Z,4.01
2018-02-13T15:18:14.356Z,3.99
2018-02-13T15:20:42.926Z,4.01
2018-02-13T15:23:11.735Z,4.06
2018-02-13T15:25:39.827Z,4.07
2018-02-13T15:28:08.282Z,4.09
2018-02-13T15:30:36.384Z,4.12
2018-02-13T15:33:04.593Z,4.19
2018-02-13T15:35:32.543Z,4.12
2018-02-13T15:38:01.776Z,4.11
2018-02-13T15:40:30.954Z,4.02
2018-02-13T15:42:59.122Z,3.85
2018-02-13T15:45:26.923Z,3.72
2018-02-13T15:47:54.826Z,3.67
2018-02-13T15:50:22.729Z,3.55
2018-02-13T15:52:50.580Z,3.52
2018-02-13T15:55:18.368Z,3.39
2018-02-13T15:57:46.161Z,3.31
2018-02-13T16:00:13.994Z,3.28
2018-02-13T16:02:41.821Z,3.25
2018-02-13T16:05:09.588Z,3.16
2018-02-13T16:07:37.352Z,3.05
2018-02-13T16:10:05.280Z,3.08
2018-02-13T16:12:33.150Z,3.13
2018-02-13T16:15:01.002Z,3.16
2018-02-13T16:17:28.816Z,3.15
2018-02-13T16:19:56.696Z,3.06
2018-02-13T16:22:24.534Z,3.02
2018-02-13T16:24:52.429Z,2.99
2018-02-13T16:27:20.297Z,2.91
2018-02-13T16:29:48.201Z,2.91
2018-02-13T16:32:16.033Z,3.16
2018-02-13T16:34:43.952Z,2.92
2018-02-13T16:37:11.760Z,2.71
2018-02-13T16:39:39.688Z,2.54
2018-02-13T16:42:07.528Z,2.29
2018-02-13T16:44:35.455Z,2.08
2018-02-13T16:47:03.378Z,1.91
2018-02-13T16:49:31.290Z,1.85
2018-02-13T16:51:59.132Z,1.85
2018-02-13T16:54:27.033Z,1.75
2018-02-13T16:56:54.915Z,1.76
2018-02-13T16:59:22.795Z,1.63
2018-02-13T17:01:50.612Z,1.56
2018-02-13T17:04:18.452Z,1.43
2018-02-13T17:06:46.248Z,1.35
2018-02-13T17:09:14.194Z,1.38
2018-02-13T17:11:42.000Z,1.44
2018-02-13T17:14:09.829Z,1.43
2018-02-13T17:16:37.604Z,1.40
2018-02-13T17:19:05.584Z,1.25
2018-02-13T17:21:33.372Z,1.16
2018-02-13T17:24:01.177Z,1.18
2018-02-13T17:26:29.001Z,1.11
2018-02-13T17:28:56.806Z,1.17
2018-02-13T17:31:24.639Z,1.07
2018-02-13T17:33:52.413Z,0.94
2018-02-13T17:36:20.138Z,0.91
2018-02-13T17:38:47.937Z,0.72
2018-02-13T17:41:15.750Z,0.89
2018-02-13T17:43:43.582Z,0.66
2018-02-13T17:46:11.323Z,0.50
2018-02-13T17:48:39.172Z,0.39
2018-02-13T17:51:06.981Z,0.35
2018-02-13T17:53:34.778Z,0.36
2018-02-13T17:56:02.844Z,0.41
2018-02-13T17:58:31.166Z,0.44
2018-02-13T18:00:59.382Z,0.33
2018-02-13T18:03:27.507Z,0.30
2018-02-13T18:05:55.827Z,0.36
2018-02-13T18:08:24.193Z,0.28
2018-02-13T18:10:52.343Z,0.27
2018-02-13T18:13:20.992Z,0.28
2018-02-13T18:15:49.183Z,0.27
2018-02-13T18:18:17.174Z,0.28
2018-02-13T18:20:45.707Z,0.28
2018-02-13T18:23:13.786Z,0.28
2018-02-13T18:25:41.618Z,0.23
2018-02-13T18:28:09.424Z,0.18
2018-02-13T18:30:37.272Z,0.06
2018-02-13T18:33:05.016Z,0.00
2018-02-13T18:35:32.895Z,0.01
2018-02-13T18:38:00.692Z,0.13
2018-02-13T18:40:28.555Z,0.13
2018-02-13T18:42:56.426Z,0.05
2018-02-13T18:45:24.339Z,0.05
2018-02-13T18:47:52.132Z,0.06
2018-02-13T18:50:19.966Z,-0.04
2018-02-13T18:55:15.594Z,0.05
2018-02-13T18:57:43.380Z,-0.01
2018-02-13T19:00:11.252Z,-0.05
2018-02-13T19:02:38.968Z,0.00
2018-02-13T19:05:06.775Z,-0.04
2018-02-13T19:07:34.549Z,0.08
2018-02-13T19:10:02.355Z,0.11
2018-02-13T19:12:30.130Z,-0.05
2018-02-13T19:14:58.010Z,0.05
2018-02-13T19:17:25.796Z,0.01
2018-02-13T19:19:53.622Z,0.01
2018-02-13T19:22:21.431Z,-0.03
2018-02-13T19:24:52.069Z,0.02
2018-02-13T19:27:19.843Z,-0.06
2018-02-13T19:29:47.680Z,-0.03
2018-02-13T19:32:15.470Z,0.34
2018-02-13T19:34:43.296Z,0.28
2018-02-13T19:37:11.091Z,0.14
2018-02-13T19:39:38.989Z,0.05
2018-02-13T19:42:06.911Z,-0.02
2018-02-13T19:44:34.676Z,0.11
2018-02-13T19:47:02.627Z,0.13
2018-02-13T19:49:30.440Z,0.20
2018-02-13T19:51:58.308Z,0.05
2018-02-13T19:54:26.132Z,0.05
2018-02-13T19:56:53.992Z,0.05
2018-02-13T19:59:21.792Z,-0.02
2018-02-13T20:01:49.713Z,-0.16
2018-02-13T20:04:17.581Z,-0.17
2018-02-13T20:06:45.442Z,-0.11
2018-02-13T20:09:13.281Z,-0.14
2018-02-13T20:11:41.119Z,-0.21
2018-02-13T20:14:08.915Z,-0.18
2018-02-13T20:16:36.760Z,-0.23
2018-02-13T20:19:04.535Z,-0.30
2018-02-13T20:21:32.363Z,-0.34
2018-02-13T20:24:00.133Z,-0.30
2018-02-13T20:26:28.139Z,-0.62
2018-02-13T20:28:55.963Z,-0.56
2018-02-13T20:31:23.796Z,-0.41
2018-02-13T20:33:51.577Z,-0.47
2018-02-13T20:36:19.480Z,-0.44
2018-02-13T20:38:47.270Z,-0.45
2018-02-13T20:41:15.146Z,-0.40
2018-02-13T20:43:42.990Z,-0.27
2018-02-13T20:46:10.863Z,-0.34
2018-02-13T20:48:38.711Z,-0.32
2018-02-13T20:51:06.613Z,-0.28
2018-02-13T20:53:34.431Z,-0.20
2018-02-13T20:56:02.297Z,-0.31
2018-02-13T20:58:30.139Z,-0.26
2018-02-13T21:00:57.968Z,-0.21
2018-02-13T21:03:25.729Z,-0.30
2018-02-13T21:05:53.578Z,-0.37
2018-02-13T21:08:21.374Z,-0.51
2018-02-13T21:10:49.193Z,-0.55
2018-02-13T21:13:16.984Z,-0.47
2018-02-13T21:15:44.847Z,-0.58
2018-02-13T21:18:12.639Z,-0.65
2018-02-13T21:20:40.508Z,-0.69
2018-02-13T21:23:08.352Z,-0.74
2018-02-13T21:25:36.159Z,-0.77
2018-02-13T21:28:04.020Z,-0.79
2018-02-13T21:30:31.873Z,-0.72
2018-02-13T21:32:59.692Z,-0.77
2018-02-13T21:35:27.461Z,-0.75
2018-02-13T21:37:55.309Z,-0.91
2018-02-13T21:40:23.156Z,-0.98
2018-02-13T21:42:51.068Z,-0.88
2018-02-13T21:45:18.844Z,-0.88
2018-02-13T21:47:46.655Z,-0.94
2018-02-13T21:50:14.468Z,-0.85
2018-02-13T21:52:42.298Z,-0.82
2018-02-13T21:55:10.205Z,-144.12
2018-02-13T21:57:38.068Z,-144.12
2018-02-13T22:00:05.967Z,-144.12
2018-02-13T22:02:33.850Z,-144.12
2018-02-13T22:05:01.708Z,-144.12
2018-02-13T22:07:29.548Z,-144.12
2018-02-13T22:09:57.400Z,-144.12
2018-02-13T22:12:25.268Z,-144.12
2018-02-13T22:14:53.087Z,-144.12
2018-02-13T22:17:20.947Z,-144.12
2018-02-13T22:19:48.805Z,-144.12
2018-02-13T22:22:16.589Z,-144.12
2018-02-13T22:24:44.341Z,-144.12
2018-02-13T22:27:12.324Z,-144.12
2018-02-13T22:29:40.104Z,-144.12
2018-02-13T22:32:07.935Z,-144.12
2018-02-13T22:34:35.741Z,-144.12
2018-02-13T22:37:03.587Z,-144.12
2018-02-13T22:39:31.536Z,-144.12
2018-02-13T22:41:59.408Z,-144.12
2018-02-13T22:44:27.281Z,-144.12
2018-02-13T22:46:55.127Z,-144.12
2018-02-13T22:49:22.936Z,-144.12
2018-02-13T22:51:50.756Z,-144.12
2018-02-13T22:54:18.593Z,-144.12
2018-02-13T22:56:46.446Z,-144.12
2018-02-13T22:59:14.296Z,-144.12
2018-02-13T23:01:42.149Z,-144.12
2018-02-13T23:04:09.968Z,-144.12
2018-02-13T23:06:37.778Z,-144.12
2018-02-13T23:09:05.579Z,-144.12
2018-02-13T23:11:33.332Z,-144.12
2018-02-13T23:14:01.131Z,-144.12
2018-02-13T23:16:28.886Z,-144.12
2018-02-13T23:18:56.782Z,-144.12
2018-02-13T23:21:24.535Z,-144.12
2018-02-13T23:23:52.365Z,-144.12
2018-02-13T23:26:20.137Z,-144.12
2018-02-13T23:28:47.967Z,-144.12
2018-02-13T23:31:15.749Z,-144.12
2018-02-13T23:33:43.547Z,-144.12
2018-02-13T23:36:11.291Z,-144.12
2018-02-13T23:38:39.144Z,-144.12
2018-02-13T23:41:06.890Z,-144.12
2018-02-13T23:43:34.732Z,-144.12
2018-02-13T23:46:02.508Z,-144.12
2018-02-13T23:48:30.497Z,-144.12
2018-02-13T23:50:58.257Z,-144.12
2018-02-13T23:53:26.051Z,-144.12
2018-02-13T23:55:53.895Z,-144.12
2018-02-13T23:58:21.724Z,-144.12
